This demonstration page uses our WeatherBlox Daily Observations layout. Learn more.

Left ArrowRight Arrow

39.08367, -84.50855

Hourly Observations for March 20, 2016

Temp ( °F °C ) Dew Point ( °F °C ) Humidity (%) Winds ( mph kmh ) Pressure ( in mb ) Visibility ( mi km ) Precip ( " mm )
12:53 am 00:53 Mostly Cloudy 34 1 27 -3 75 75 NE 8 13 30.12 1020 10 16.0934 N/A
1:53 am 01:53 Clear 31 -0.6 25 -3.9 79 79 NE 7 11 30.14 1021 10 16.0934 N/A
2:53 am 02:53 Clear 31 -0.6 23 -5 72 72 N 6 9 30.14 1021 10 16.0934 N/A
3:53 am 03:53 Partly Cloudy 30 -1.1 20 -6.7 66 66 N 6 9 30.13 1020 10 16.0934 N/A
4:53 am 04:53 Clear 30 -1 18 -8 59 59 N 3 6 30.15 1021 10 16.0934 N/A
5:53 am 05:53 Clear 29 -1.7 19 -7.2 66 66 NNE 3 6 30.12 1020 10 16.0934 N/A
6:53 am 06:53 Clear 28 -2.2 20 -6.7 72 72 N N/A 30.12 1020 10 16.0934 N/A
7:53 am 07:53 Sunny 28 -2.2 21 -6.1 75 75 N N/A 30.13 1020 10 16.0934 N/A
8:53 am 08:53 Sunny 31 -0.6 24 -4.4 76 76 NNE 3 6 30.13 1020 10 16.0934 N/A
10:53 am 10:53 Sunny 38 3.3 27 -2.8 65 65 NW 9 15 30.13 1020 10 16.0934 N/A
12:53 pm 12:53 Sunny 43 6.1 25 -3.9 49 49 VRB 7 11 30.1 1019 10 16.0934 N/A
2:53 pm 14:53 Sunny 44 6.7 21 -6.1 40 40 NNW 9 15 30.07 1018 10 16.0934 N/A
4:53 pm 16:53 Partly Cloudy 44 6.7 21 -6.1 40 40 NNW 13 20 30.06 1018 10 16.0934 N/A
5:53 pm 17:53 Mostly Cloudy 44 6.7 20 -6.7 38 38 N 12 19 30.06 1018 10 16.0934 N/A
6:53 pm 18:53 Mostly Cloudy 43 6.1 19 -7.2 38 38 NNW 14 22 30.08 1019 10 16.0934 N/A
7:53 pm 19:53 Mostly Clear 41 5 17 -8.3 38 38 N 12 19 30.1 1019 10 16.0934 N/A
8:53 pm 20:53 Clear 40 4.4 17 -8.3 40 40 VRB 5 7 30.11 1020 10 16.0934 N/A
9:53 pm 21:53 Mostly Clear 40 4.4 18 -7.8 41 41 WNW 6 9 30.13 1020 10 16.0934 N/A
10:53 pm 22:53 Mostly Cloudy 40 4.4 20 -6.7 45 45 WNW 8 13 30.14 1021 10 16.0934 N/A
11:53 pm 23:53 Clear 39 3.9 23 -5 53 53 NW 5 7 30.14 1021 10 16.0934 N/A

Powered by AerisWeather